sensor_id;sensor_type;location;lat;lon;timestamp;P1;durP1;ratioP1;P2;durP2;ratioP2
11084;SDS011;5596;46.826;8.650;2022-07-23T00:00:07;11.97;;;10.63;;
11084;SDS011;5596;46.826;8.650;2022-07-23T00:02:34;12.30;;;11.00;;
11084;SDS011;5596;46.826;8.650;2022-07-23T00:05:02;15.77;;;10.43;;
11084;SDS011;5596;46.826;8.650;2022-07-23T00:07:29;12.73;;;10.10;;
11084;SDS011;5596;46.826;8.650;2022-07-23T00:09:58;13.83;;;10.70;;
11084;SDS011;5596;46.826;8.650;2022-07-23T00:12:25;11.00;;;9.80;;
11084;SDS011;5596;46.826;8.650;2022-07-23T00:14:52;11.03;;;9.80;;
11084;SDS011;5596;46.826;8.650;2022-07-23T00:17:19;10.70;;;8.97;;
11084;SDS011;5596;46.826;8.650;2022-07-23T00:19:46;11.63;;;9.40;;
11084;SDS011;5596;46.826;8.650;2022-07-23T00:22:14;12.57;;;10.13;;
11084;SDS011;5596;46.826;8.650;2022-07-23T00:24:41;12.10;;;10.40;;
11084;SDS011;5596;46.826;8.650;2022-07-23T00:27:09;13.60;;;11.00;;
11084;SDS011;5596;46.826;8.650;2022-07-23T00:29:36;12.70;;;10.60;;
11084;SDS011;5596;46.826;8.650;2022-07-23T00:32:03;12.23;;;10.43;;
11084;SDS011;5596;46.826;8.650;2022-07-23T00:34:31;12.63;;;10.90;;
11084;SDS011;5596;46.826;8.650;2022-07-23T00:36:58;14.03;;;11.20;;
11084;SDS011;5596;46.826;8.650;2022-07-23T00:39:25;12.17;;;10.97;;
11084;SDS011;5596;46.826;8.650;2022-07-23T00:41:52;13.40;;;11.57;;
11084;SDS011;5596;46.826;8.650;2022-07-23T00:44:21;13.67;;;11.47;;
11084;SDS011;5596;46.826;8.650;2022-07-23T00:46:50;12.57;;;11.27;;
11084;SDS011;5596;46.826;8.650;2022-07-23T00:49:19;13.93;;;11.83;;
11084;SDS011;5596;46.826;8.650;2022-07-23T00:51:47;14.20;;;12.53;;
11084;SDS011;5596;46.826;8.650;2022-07-23T00:54:15;13.33;;;11.70;;
11084;SDS011;5596;46.826;8.650;2022-07-23T00:56:43;12.30;;;10.93;;
11084;SDS011;5596;46.826;8.650;2022-07-23T00:59:12;13.17;;;11.87;;
11084;SDS011;5596;46.826;8.650;2022-07-23T01:01:41;13.90;;;11.70;;
11084;SDS011;5596;46.826;8.650;2022-07-23T01:04:10;14.77;;;11.57;;
11084;SDS011;5596;46.826;8.650;2022-07-23T01:06:38;15.83;;;12.10;;
11084;SDS011;5596;46.826;8.650;2022-07-23T01:09:05;13.50;;;11.53;;
11084;SDS011;5596;46.826;8.650;2022-07-23T01:11:34;14.20;;;11.70;;
11084;SDS011;5596;46.826;8.650;2022-07-23T01:14:09;13.27;;;11.97;;
11084;SDS011;5596;46.826;8.650;2022-07-23T01:16:37;13.87;;;12.47;;
11084;SDS011;5596;46.826;8.650;2022-07-23T01:19:06;13.63;;;12.17;;
11084;SDS011;5596;46.826;8.650;2022-07-23T01:21:37;13.90;;;12.50;;
11084;SDS011;5596;46.826;8.650;2022-07-23T01:24:09;14.03;;;12.53;;
11084;SDS011;5596;46.826;8.650;2022-07-23T01:26:43;14.30;;;12.90;;
11084;SDS011;5596;46.826;8.650;2022-07-23T01:29:11;16.47;;;13.50;;
11084;SDS011;5596;46.826;8.650;2022-07-23T01:31:39;14.40;;;12.90;;
11084;SDS011;5596;46.826;8.650;2022-07-23T01:34:06;14.73;;;12.77;;
11084;SDS011;5596;46.826;8.650;2022-07-23T01:36:33;14.20;;;12.70;;
11084;SDS011;5596;46.826;8.650;2022-07-23T01:39:01;14.83;;;12.67;;
11084;SDS011;5596;46.826;8.650;2022-07-23T01:41:31;16.07;;;13.10;;
11084;SDS011;5596;46.826;8.650;2022-07-23T01:43:58;13.77;;;12.37;;
11084;SDS011;5596;46.826;8.650;2022-07-23T01:46:26;13.73;;;12.27;;
11084;SDS011;5596;46.826;8.650;2022-07-23T01:48:53;13.83;;;11.50;;
11084;SDS011;5596;46.826;8.650;2022-07-23T01:51:40;12.20;;;10.77;;
11084;SDS011;5596;46.826;8.650;2022-07-23T01:54:26;12.23;;;10.90;;
11084;SDS011;5596;46.826;8.650;2022-07-23T01:56:55;12.30;;;11.00;;
11084;SDS011;5596;46.826;8.650;2022-07-23T01:59:22;13.80;;;10.30;;
11084;SDS011;5596;46.826;8.650;2022-07-23T02:01:50;11.33;;;10.23;;
11084;SDS011;5596;46.826;8.650;2022-07-23T02:04:17;11.20;;;10.00;;
11084;SDS011;5596;46.826;8.650;2022-07-23T02:06:46;11.20;;;10.10;;
11084;SDS011;5596;46.826;8.650;2022-07-23T02:09:13;11.27;;;10.07;;
11084;SDS011;5596;46.826;8.650;2022-07-23T02:11:40;11.30;;;10.10;;
11084;SDS011;5596;46.826;8.650;2022-07-23T02:14:09;11.43;;;10.33;;
11084;SDS011;5596;46.826;8.650;2022-07-23T02:16:36;11.30;;;10.03;;
11084;SDS011;5596;46.826;8.650;2022-07-23T02:19:03;11.93;;;10.67;;
11084;SDS011;5596;46.826;8.650;2022-07-23T02:21:31;11.63;;;10.23;;
11084;SDS011;5596;46.826;8.650;2022-07-23T02:23:58;12.50;;;10.27;;
11084;SDS011;5596;46.826;8.650;2022-07-23T02:26:25;13.10;;;10.47;;
11084;SDS011;5596;46.826;8.650;2022-07-23T02:28:53;10.73;;;9.63;;
11084;SDS011;5596;46.826;8.650;2022-07-23T02:31:22;12.30;;;10.30;;
11084;SDS011;5596;46.826;8.650;2022-07-23T02:33:49;11.00;;;9.73;;
11084;SDS011;5596;46.826;8.650;2022-07-23T02:36:17;11.33;;;9.97;;
11084;SDS011;5596;46.826;8.650;2022-07-23T02:38:44;11.07;;;9.98;;
11084;SDS011;5596;46.826;8.650;2022-07-23T02:41:11;11.23;;;10.13;;
11084;SDS011;5596;46.826;8.650;2022-07-23T02:43:38;11.20;;;10.00;;
11084;SDS011;5596;46.826;8.650;2022-07-23T02:46:05;11.93;;;10.57;;
11084;SDS011;5596;46.826;8.650;2022-07-23T02:48:34;12.05;;;9.82;;
11084;SDS011;5596;46.826;8.650;2022-07-23T02:51:02;11.13;;;9.88;;
11084;SDS011;5596;46.826;8.650;2022-07-23T02:53:36;11.95;;;10.55;;
11084;SDS011;5596;46.826;8.650;2022-07-23T02:56:03;17.47;;;10.90;;
11084;SDS011;5596;46.826;8.650;2022-07-23T02:58:30;11.90;;;9.93;;
11084;SDS011;5596;46.826;8.650;2022-07-23T03:00:58;12.27;;;10.83;;
11084;SDS011;5596;46.826;8.650;2022-07-23T03:03:25;12.27;;;11.07;;
11084;SDS011;5596;46.826;8.650;2022-07-23T03:05:54;11.67;;;10.40;;
11084;SDS011;5596;46.826;8.650;2022-07-23T03:08:21;13.35;;;11.38;;
11084;SDS011;5596;46.826;8.650;2022-07-23T03:10:50;13.47;;;10.60;;
11084;SDS011;5596;46.826;8.650;2022-07-23T03:13:17;11.70;;;10.60;;
11084;SDS011;5596;46.826;8.650;2022-07-23T03:15:44;11.53;;;10.37;;
11084;SDS011;5596;46.826;8.650;2022-07-23T03:18:12;13.67;;;10.10;;
11084;SDS011;5596;46.826;8.650;2022-07-23T03:20:39;11.53;;;10.00;;
11084;SDS011;5596;46.826;8.650;2022-07-23T03:23:09;11.63;;;10.43;;
11084;SDS011;5596;46.826;8.650;2022-07-23T03:25:37;12.90;;;10.63;;
11084;SDS011;5596;46.826;8.650;2022-07-23T03:28:04;14.00;;;10.93;;
11084;SDS011;5596;46.826;8.650;2022-07-23T03:30:31;12.03;;;10.90;;
11084;SDS011;5596;46.826;8.650;2022-07-23T03:32:58;13.83;;;10.83;;
11084;SDS011;5596;46.826;8.650;2022-07-23T03:35:25;11.30;;;10.20;;
11084;SDS011;5596;46.826;8.650;2022-07-23T03:38:09;11.63;;;10.30;;
11084;SDS011;5596;46.826;8.650;2022-07-23T03:40:37;12.80;;;11.57;;
11084;SDS011;5596;46.826;8.650;2022-07-23T03:43:04;12.07;;;10.73;;
11084;SDS011;5596;46.826;8.650;2022-07-23T03:45:31;14.00;;;11.93;;
11084;SDS011;5596;46.826;8.650;2022-07-23T03:47:59;14.77;;;11.93;;
11084;SDS011;5596;46.826;8.650;2022-07-23T03:50:27;16.00;;;13.57;;
11084;SDS011;5596;46.826;8.650;2022-07-23T03:52:55;13.40;;;11.83;;
11084;SDS011;5596;46.826;8.650;2022-07-23T03:55:23;12.03;;;10.77;;
11084;SDS011;5596;46.826;8.650;2022-07-23T03:57:51;12.73;;;10.63;;
11084;SDS011;5596;46.826;8.650;2022-07-23T04:00:18;12.83;;;11.63;;
11084;SDS011;5596;46.826;8.650;2022-07-23T04:02:48;14.03;;;11.03;;
11084;SDS011;5596;46.826;8.650;2022-07-23T04:05:16;15.90;;;11.17;;
11084;SDS011;5596;46.826;8.650;2022-07-23T04:07:46;12.80;;;11.50;;
11084;SDS011;5596;46.826;8.650;2022-07-23T04:10:14;12.30;;;11.10;;
11084;SDS011;5596;46.826;8.650;2022-07-23T04:12:42;13.37;;;11.97;;
11084;SDS011;5596;46.826;8.650;2022-07-23T04:15:10;13.07;;;11.10;;
11084;SDS011;5596;46.826;8.650;2022-07-23T04:17:37;11.03;;;10.03;;
11084;SDS011;5596;46.826;8.650;2022-07-23T04:20:05;11.47;;;10.37;;
11084;SDS011;5596;46.826;8.650;2022-07-23T04:22:38;11.37;;;10.27;;
11084;SDS011;5596;46.826;8.650;2022-07-23T04:25:06;11.83;;;10.10;;
11084;SDS011;5596;46.826;8.650;2022-07-23T04:27:33;11.80;;;9.60;;
11084;SDS011;5596;46.826;8.650;2022-07-23T04:30:02;10.57;;;9.47;;
11084;SDS011;5596;46.826;8.650;2022-07-23T04:32:30;11.43;;;10.33;;
11084;SDS011;5596;46.826;8.650;2022-07-23T04:34:57;10.60;;;9.50;;
11084;SDS011;5596;46.826;8.650;2022-07-23T04:37:24;10.87;;;9.83;;
11084;SDS011;5596;46.826;8.650;2022-07-23T04:39:51;10.00;;;9.10;;
11084;SDS011;5596;46.826;8.650;2022-07-23T04:42:18;10.03;;;9.03;;
11084;SDS011;5596;46.826;8.650;2022-07-23T04:44:45;10.52;;;9.43;;
11084;SDS011;5596;46.826;8.650;2022-07-23T04:47:14;10.15;;;9.15;;
11084;SDS011;5596;46.826;8.650;2022-07-23T04:49:43;12.38;;;9.60;;
11084;SDS011;5596;46.826;8.650;2022-07-23T04:52:10;9.75;;;8.75;;
11084;SDS011;5596;46.826;8.650;2022-07-23T04:54:37;13.05;;;9.07;;
11084;SDS011;5596;46.826;8.650;2022-07-23T04:57:04;10.93;;;9.83;;
11084;SDS011;5596;46.826;8.650;2022-07-23T04:59:32;10.73;;;9.00;;
11084;SDS011;5596;46.826;8.650;2022-07-23T05:02:02;10.67;;;9.53;;
11084;SDS011;5596;46.826;8.650;2022-07-23T05:04:32;9.45;;;8.55;;
11084;SDS011;5596;46.826;8.650;2022-07-23T05:07:00;10.63;;;9.17;;
11084;SDS011;5596;46.826;8.650;2022-07-23T05:09:27;10.57;;;9.50;;
11084;SDS011;5596;46.826;8.650;2022-07-23T05:11:54;11.25;;;8.68;;
11084;SDS011;5596;46.826;8.650;2022-07-23T05:14:21;9.63;;;8.35;;
11084;SDS011;5596;46.826;8.650;2022-07-23T05:16:50;11.55;;;8.68;;
11084;SDS011;5596;46.826;8.650;2022-07-23T05:19:21;11.60;;;8.30;;
11084;SDS011;5596;46.826;8.650;2022-07-23T05:21:50;10.35;;;8.68;;
11084;SDS011;5596;46.826;8.650;2022-07-23T05:24:17;10.15;;;8.52;;
11084;SDS011;5596;46.826;8.650;2022-07-23T05:26:44;12.25;;;9.88;;
11084;SDS011;5596;46.826;8.650;2022-07-23T05:29:11;11.02;;;9.93;;
11084;SDS011;5596;46.826;8.650;2022-07-23T05:31:38;11.02;;;9.63;;
11084;SDS011;5596;46.826;8.650;2022-07-23T05:34:06;10.60;;;9.55;;
11084;SDS011;5596;46.826;8.650;2022-07-23T05:36:34;11.63;;;10.02;;
11084;SDS011;5596;46.826;8.650;2022-07-23T05:39:03;10.82;;;9.73;;
11084;SDS011;5596;46.826;8.650;2022-07-23T05:41:33;10.05;;;8.95;;
11084;SDS011;5596;46.826;8.650;2022-07-23T05:44:02;10.18;;;9.13;;
11084;SDS011;5596;46.826;8.650;2022-07-23T05:46:31;11.23;;;9.20;;
11084;SDS011;5596;46.826;8.650;2022-07-23T05:49:04;9.77;;;8.88;;
11084;SDS011;5596;46.826;8.650;2022-07-23T05:52:04;9.52;;;8.50;;
11084;SDS011;5596;46.826;8.650;2022-07-23T05:54:50;10.65;;;9.02;;
11084;SDS011;5596;46.826;8.650;2022-07-23T05:57:17;10.45;;;9.40;;
11084;SDS011;5596;46.826;8.650;2022-07-23T05:59:44;11.43;;;9.32;;
11084;SDS011;5596;46.826;8.650;2022-07-23T06:02:11;9.80;;;8.85;;
11084;SDS011;5596;46.826;8.650;2022-07-23T06:04:38;9.75;;;8.75;;
11084;SDS011;5596;46.826;8.650;2022-07-23T06:07:28;10.02;;;8.77;;
11084;SDS011;5596;46.826;8.650;2022-07-23T06:09:57;10.50;;;9.35;;
11084;SDS011;5596;46.826;8.650;2022-07-23T06:12:24;9.48;;;8.57;;
11084;SDS011;5596;46.826;8.650;2022-07-23T06:14:51;10.95;;;9.15;;
11084;SDS011;5596;46.826;8.650;2022-07-23T06:17:19;10.50;;;9.50;;
11084;SDS011;5596;46.826;8.650;2022-07-23T06:19:46;10.40;;;8.35;;
11084;SDS011;5596;46.826;8.650;2022-07-23T06:22:14;11.13;;;9.60;;
11084;SDS011;5596;46.826;8.650;2022-07-23T06:24:42;10.55;;;9.45;;
11084;SDS011;5596;46.826;8.650;2022-07-23T06:27:11;9.27;;;8.43;;
11084;SDS011;5596;46.826;8.650;2022-07-23T06:29:38;11.25;;;9.57;;
11084;SDS011;5596;46.826;8.650;2022-07-23T06:32:06;11.07;;;9.85;;
11084;SDS011;5596;46.826;8.650;2022-07-23T06:34:33;12.50;;;9.40;;
11084;SDS011;5596;46.826;8.650;2022-07-23T06:37:00;13.10;;;11.75;;
11084;SDS011;5596;46.826;8.650;2022-07-23T06:39:27;11.35;;;9.23;;
11084;SDS011;5596;46.826;8.650;2022-07-23T06:41:56;10.25;;;9.20;;
11084;SDS011;5596;46.826;8.650;2022-07-23T06:44:36;10.15;;;8.80;;
11084;SDS011;5596;46.826;8.650;2022-07-23T06:47:06;11.48;;;9.95;;
11084;SDS011;5596;46.826;8.650;2022-07-23T06:49:34;11.93;;;10.10;;
11084;SDS011;5596;46.826;8.650;2022-07-23T06:52:01;9.95;;;8.93;;
11084;SDS011;5596;46.826;8.650;2022-07-23T06:54:28;10.75;;;9.35;;
11084;SDS011;5596;46.826;8.650;2022-07-23T06:56:56;10.98;;;9.77;;
11084;SDS011;5596;46.826;8.650;2022-07-23T06:59:23;11.18;;;9.27;;
11084;SDS011;5596;46.826;8.650;2022-07-23T07:01:51;9.88;;;8.52;;
11084;SDS011;5596;46.826;8.650;2022-07-23T07:04:18;10.55;;;9.55;;
11084;SDS011;5596;46.826;8.650;2022-07-23T07:06:45;10.23;;;9.18;;
11084;SDS011;5596;46.826;8.650;2022-07-23T07:09:12;10.35;;;9.32;;
11084;SDS011;5596;46.826;8.650;2022-07-23T07:11:39;9.68;;;8.63;;
11084;SDS011;5596;46.826;8.650;2022-07-23T07:14:06;10.27;;;8.98;;
11084;SDS011;5596;46.826;8.650;2022-07-23T07:16:33;9.60;;;8.65;;
11084;SDS011;5596;46.826;8.650;2022-07-23T07:19:02;10.52;;;9.38;;
11084;SDS011;5596;46.826;8.650;2022-07-23T07:21:29;11.48;;;9.27;;
11084;SDS011;5596;46.826;8.650;2022-07-23T07:23:56;10.40;;;9.20;;
11084;SDS011;5596;46.826;8.650;2022-07-23T07:26:23;9.95;;;8.85;;
11084;SDS011;5596;46.826;8.650;2022-07-23T07:28:50;10.35;;;9.27;;
11084;SDS011;5596;46.826;8.650;2022-07-23T07:31:17;10.70;;;9.52;;
11084;SDS011;5596;46.826;8.650;2022-07-23T07:33:44;10.45;;;9.38;;
11084;SDS011;5596;46.826;8.650;2022-07-23T07:36:13;10.05;;;9.05;;
11084;SDS011;5596;46.826;8.650;2022-07-23T07:38:40;10.43;;;9.43;;
11084;SDS011;5596;46.826;8.650;2022-07-23T07:41:07;14.15;;;11.07;;
11084;SDS011;5596;46.826;8.650;2022-07-23T07:43:35;11.35;;;10.00;;
11084;SDS011;5596;46.826;8.650;2022-07-23T07:46:02;12.38;;;9.82;;
11084;SDS011;5596;46.826;8.650;2022-07-23T07:48:29;12.15;;;10.57;;
11084;SDS011;5596;46.826;8.650;2022-07-23T07:50:56;10.60;;;9.45;;
11084;SDS011;5596;46.826;8.650;2022-07-23T07:53:25;10.88;;;9.77;;
11084;SDS011;5596;46.826;8.650;2022-07-23T07:55:52;10.70;;;9.60;;
11084;SDS011;5596;46.826;8.650;2022-07-23T07:58:19;11.02;;;9.85;;
11084;SDS011;5596;46.826;8.650;2022-07-23T08:00:46;10.32;;;9.18;;
11084;SDS011;5596;46.826;8.650;2022-07-23T08:03:13;12.45;;;9.85;;
11084;SDS011;5596;46.826;8.650;2022-07-23T08:05:40;10.23;;;9.27;;
11084;SDS011;5596;46.826;8.650;2022-07-23T08:08:07;10.43;;;9.25;;
11084;SDS011;5596;46.826;8.650;2022-07-23T08:10:41;12.57;;;9.63;;
11084;SDS011;5596;46.826;8.650;2022-07-23T08:13:11;11.18;;;9.88;;
11084;SDS011;5596;46.826;8.650;2022-07-23T08:15:39;10.73;;;9.23;;
11084;SDS011;5596;46.826;8.650;2022-07-23T08:18:07;11.35;;;9.05;;
11084;SDS011;5596;46.826;8.650;2022-07-23T08:20:34;10.10;;;9.00;;
11084;SDS011;5596;46.826;8.650;2022-07-23T08:23:02;10.63;;;9.63;;
11084;SDS011;5596;46.826;8.650;2022-07-23T08:25:32;10.18;;;8.60;;
11084;SDS011;5596;46.826;8.650;2022-07-23T08:28:02;10.10;;;9.10;;
11084;SDS011;5596;46.826;8.650;2022-07-23T08:30:31;10.73;;;8.73;;
11084;SDS011;5596;46.826;8.650;2022-07-23T08:32:59;10.07;;;9.07;;
11084;SDS011;5596;46.826;8.650;2022-07-23T08:35:29;10.13;;;8.93;;
11084;SDS011;5596;46.826;8.650;2022-07-23T08:37:57;10.43;;;9.32;;
11084;SDS011;5596;46.826;8.650;2022-07-23T08:40:26;9.75;;;8.75;;
11084;SDS011;5596;46.826;8.650;2022-07-23T08:42:55;12.43;;;8.68;;
11084;SDS011;5596;46.826;8.650;2022-07-23T08:45:24;11.18;;;9.35;;
11084;SDS011;5596;46.826;8.650;2022-07-23T08:47:53;10.85;;;9.55;;
11084;SDS011;5596;46.826;8.650;2022-07-23T08:50:21;10.45;;;9.35;;
11084;SDS011;5596;46.826;8.650;2022-07-23T08:52:50;10.20;;;9.18;;
11084;SDS011;5596;46.826;8.650;2022-07-23T08:55:18;12.25;;;11.05;;
11084;SDS011;5596;46.826;8.650;2022-07-23T08:57:55;10.57;;;9.57;;
11084;SDS011;5596;46.826;8.650;2022-07-23T09:00:22;10.60;;;9.35;;
11084;SDS011;5596;46.826;8.650;2022-07-23T09:02:50;11.15;;;9.63;;
11084;SDS011;5596;46.826;8.650;2022-07-23T09:05:18;11.98;;;8.98;;
11084;SDS011;5596;46.826;8.650;2022-07-23T09:08:03;9.95;;;9.02;;
11084;SDS011;5596;46.826;8.650;2022-07-23T09:10:42;10.93;;;9.77;;
11084;SDS011;5596;46.826;8.650;2022-07-23T09:16:06;10.48;;;9.38;;
11084;SDS011;5596;46.826;8.650;2022-07-23T09:18:35;11.05;;;9.73;;
11084;SDS011;5596;46.826;8.650;2022-07-23T09:21:05;10.88;;;9.15;;
11084;SDS011;5596;46.826;8.650;2022-07-23T09:23:37;10.57;;;9.48;;
11084;SDS011;5596;46.826;8.650;2022-07-23T09:26:16;10.57;;;9.50;;
11084;SDS011;5596;46.826;8.650;2022-07-23T09:28:53;11.05;;;9.25;;
11084;SDS011;5596;46.826;8.650;2022-07-23T09:31:23;10.50;;;9.40;;
11084;SDS011;5596;46.826;8.650;2022-07-23T09:33:50;10.32;;;9.20;;
11084;SDS011;5596;46.826;8.650;2022-07-23T09:36:28;15.00;;;9.45;;
11084;SDS011;5596;46.826;8.650;2022-07-23T09:38:55;11.02;;;9.90;;
11084;SDS011;5596;46.826;8.650;2022-07-23T09:41:22;10.70;;;9.60;;
11084;SDS011;5596;46.826;8.650;2022-07-23T09:43:59;11.35;;;10.23;;
11084;SDS011;5596;46.826;8.650;2022-07-23T09:46:35;9.70;;;8.70;;
11084;SDS011;5596;46.826;8.650;2022-07-23T09:49:09;10.13;;;8.38;;
11084;SDS011;5596;46.826;8.650;2022-07-23T09:51:43;10.18;;;9.23;;
11084;SDS011;5596;46.826;8.650;2022-07-23T09:54:20;9.05;;;8.23;;
11084;SDS011;5596;46.826;8.650;2022-07-23T09:56:50;10.52;;;8.98;;
11084;SDS011;5596;46.826;8.650;2022-07-23T09:59:18;9.05;;;8.20;;
11084;SDS011;5596;46.826;8.650;2022-07-23T10:01:51;9.57;;;8.68;;
11084;SDS011;5596;46.826;8.650;2022-07-23T10:04:20;8.98;;;7.75;;
11084;SDS011;5596;46.826;8.650;2022-07-23T10:07:11;9.50;;;8.60;;
11084;SDS011;5596;46.826;8.650;2022-07-23T10:09:59;9.02;;;8.13;;
11084;SDS011;5596;46.826;8.650;2022-07-23T10:13:02;9.75;;;8.05;;
11084;SDS011;5596;46.826;8.650;2022-07-23T10:16:00;11.00;;;8.30;;
11084;SDS011;5596;46.826;8.650;2022-07-23T10:18:30;9.40;;;8.10;;
11084;SDS011;5596;46.826;8.650;2022-07-23T10:20:58;10.60;;;8.07;;
11084;SDS011;5596;46.826;8.650;2022-07-23T10:23:29;8.77;;;7.78;;
11084;SDS011;5596;46.826;8.650;2022-07-23T10:26:04;8.82;;;7.75;;
11084;SDS011;5596;46.826;8.650;2022-07-23T10:31:31;10.15;;;8.38;;
11084;SDS011;5596;46.826;8.650;2022-07-23T10:34:11;8.85;;;7.97;;
11084;SDS011;5596;46.826;8.650;2022-07-23T10:36:44;8.18;;;7.28;;
11084;SDS011;5596;46.826;8.650;2022-07-23T10:39:17;9.00;;;7.97;;
11084;SDS011;5596;46.826;8.650;2022-07-23T10:41:48;9.10;;;8.13;;
11084;SDS011;5596;46.826;8.650;2022-07-23T10:44:18;8.93;;;7.90;;
11084;SDS011;5596;46.826;8.650;2022-07-23T10:46:56;8.82;;;7.80;;
11084;SDS011;5596;46.826;8.650;2022-07-23T10:49:36;11.80;;;8.07;;
11084;SDS011;5596;46.826;8.650;2022-07-23T10:57:59;10.00;;;8.15;;
11084;SDS011;5596;46.826;8.650;2022-07-23T11:00:28;9.73;;;8.40;;
11084;SDS011;5596;46.826;8.650;2022-07-23T11:02:57;10.15;;;8.40;;
11084;SDS011;5596;46.826;8.650;2022-07-23T11:05:26;9.32;;;8.32;;
11084;SDS011;5596;46.826;8.650;2022-07-23T11:08:11;8.38;;;7.35;;
11084;SDS011;5596;46.826;8.650;2022-07-23T11:10:44;9.27;;;7.53;;
11084;SDS011;5596;46.826;8.650;2022-07-23T11:13:26;9.35;;;8.45;;
11084;SDS011;5596;46.826;8.650;2022-07-23T11:16:14;10.20;;;8.52;;
11084;SDS011;5596;46.826;8.650;2022-07-23T11:21:46;8.52;;;7.72;;
11084;SDS011;5596;46.826;8.650;2022-07-23T11:24:18;8.57;;;7.72;;
11084;SDS011;5596;46.826;8.650;2022-07-23T11:26:50;10.55;;;8.07;;
11084;SDS011;5596;46.826;8.650;2022-07-23T11:32:31;8.90;;;8.10;;
11084;SDS011;5596;46.826;8.650;2022-07-23T11:35:21;9.48;;;8.48;;
11084;SDS011;5596;46.826;8.650;2022-07-23T11:37:52;9.85;;;8.85;;
11084;SDS011;5596;46.826;8.650;2022-07-23T11:40:24;9.02;;;8.23;;
11084;SDS011;5596;46.826;8.650;2022-07-23T11:42:54;9.10;;;8.20;;
11084;SDS011;5596;46.826;8.650;2022-07-23T11:45:23;10.35;;;7.95;;
11084;SDS011;5596;46.826;8.650;2022-07-23T11:47:51;9.13;;;8.23;;
11084;SDS011;5596;46.826;8.650;2022-07-23T11:50:19;10.25;;;7.63;;
11084;SDS011;5596;46.826;8.650;2022-07-23T11:52:51;9.00;;;8.10;;
11084;SDS011;5596;46.826;8.650;2022-07-23T11:55:19;9.25;;;8.02;;
11084;SDS011;5596;46.826;8.650;2022-07-23T11:57:46;8.70;;;7.80;;
11084;SDS011;5596;46.826;8.650;2022-07-23T12:00:14;9.07;;;8.27;;
11084;SDS011;5596;46.826;8.650;2022-07-23T12:02:43;10.30;;;8.10;;
11084;SDS011;5596;46.826;8.650;2022-07-23T12:05:13;8.90;;;8.10;;
11084;SDS011;5596;46.826;8.650;2022-07-23T12:07:42;8.73;;;7.88;;
11084;SDS011;5596;46.826;8.650;2022-07-23T12:10:12;9.82;;;8.88;;
11084;SDS011;5596;46.826;8.650;2022-07-23T12:12:42;10.77;;;9.65;;
11084;SDS011;5596;46.826;8.650;2022-07-23T12:15:10;9.48;;;8.60;;
11084;SDS011;5596;46.826;8.650;2022-07-23T12:17:40;10.30;;;8.50;;
11084;SDS011;5596;46.826;8.650;2022-07-23T12:20:09;11.95;;;9.13;;
11084;SDS011;5596;46.826;8.650;2022-07-23T12:22:40;10.85;;;9.75;;
11084;SDS011;5596;46.826;8.650;2022-07-23T12:25:09;10.73;;;8.98;;
11084;SDS011;5596;46.826;8.650;2022-07-23T12:27:40;10.65;;;8.68;;
11084;SDS011;5596;46.826;8.650;2022-07-23T12:30:21;9.63;;;8.60;;
11084;SDS011;5596;46.826;8.650;2022-07-23T12:32:51;10.45;;;9.43;;
11084;SDS011;5596;46.826;8.650;2022-07-23T12:35:20;10.23;;;9.20;;
11084;SDS011;5596;46.826;8.650;2022-07-23T12:37:51;10.43;;;9.38;;
11084;SDS011;5596;46.826;8.650;2022-07-23T12:40:26;11.18;;;9.00;;
11084;SDS011;5596;46.826;8.650;2022-07-23T12:42:55;10.52;;;9.45;;
11084;SDS011;5596;46.826;8.650;2022-07-23T12:45:24;10.05;;;9.10;;
11084;SDS011;5596;46.826;8.650;2022-07-23T12:47:57;10.05;;;9.02;;
11084;SDS011;5596;46.826;8.650;2022-07-23T12:50:35;10.43;;;8.40;;
11084;SDS011;5596;46.826;8.650;2022-07-23T12:53:10;11.25;;;8.73;;
11084;SDS011;5596;46.826;8.650;2022-07-23T12:55:41;10.10;;;8.35;;
11084;SDS011;5596;46.826;8.650;2022-07-23T12:58:11;9.95;;;9.05;;
11084;SDS011;5596;46.826;8.650;2022-07-23T13:00:51;10.25;;;8.70;;
11084;SDS011;5596;46.826;8.650;2022-07-23T13:03:23;12.30;;;9.75;;
11084;SDS011;5596;46.826;8.650;2022-07-23T13:05:52;12.68;;;9.27;;
11084;SDS011;5596;46.826;8.650;2022-07-23T13:08:19;10.68;;;9.15;;
11084;SDS011;5596;46.826;8.650;2022-07-23T13:10:48;9.60;;;8.70;;
11084;SDS011;5596;46.826;8.650;2022-07-23T13:13:17;10.32;;;8.50;;
11084;SDS011;5596;46.826;8.650;2022-07-23T13:15:46;11.85;;;9.43;;
11084;SDS011;5596;46.826;8.650;2022-07-23T13:18:14;11.98;;;9.93;;
11084;SDS011;5596;46.826;8.650;2022-07-23T13:20:42;11.80;;;9.30;;
11084;SDS011;5596;46.826;8.650;2022-07-23T13:23:09;10.50;;;9.50;;
11084;SDS011;5596;46.826;8.650;2022-07-23T13:25:36;10.55;;;9.50;;
11084;SDS011;5596;46.826;8.650;2022-07-23T13:28:05;10.32;;;9.27;;
11084;SDS011;5596;46.826;8.650;2022-07-23T13:30:32;11.82;;;9.77;;
11084;SDS011;5596;46.826;8.650;2022-07-23T13:33:00;11.05;;;9.88;;
11084;SDS011;5596;46.826;8.650;2022-07-23T13:35:28;11.25;;;10.15;;
11084;SDS011;5596;46.826;8.650;2022-07-23T13:37:55;12.52;;;10.57;;
11084;SDS011;5596;46.826;8.650;2022-07-23T13:40:22;12.65;;;11.32;;
11084;SDS011;5596;46.826;8.650;2022-07-23T13:42:49;12.52;;;11.23;;
11084;SDS011;5596;46.826;8.650;2022-07-23T13:45:17;12.95;;;11.50;;
11084;SDS011;5596;46.826;8.650;2022-07-23T13:47:44;12.02;;;10.82;;
11084;SDS011;5596;46.826;8.650;2022-07-23T13:50:11;12.35;;;11.15;;
11084;SDS011;5596;46.826;8.650;2022-07-23T13:52:41;12.77;;;11.55;;
11084;SDS011;5596;46.826;8.650;2022-07-23T13:55:08;15.27;;;10.70;;
11084;SDS011;5596;46.826;8.650;2022-07-23T13:57:36;13.90;;;11.68;;
11084;SDS011;5596;46.826;8.650;2022-07-23T14:00:03;12.48;;;11.18;;
11084;SDS011;5596;46.826;8.650;2022-07-23T14:02:34;12.60;;;11.30;;
11084;SDS011;5596;46.826;8.650;2022-07-23T14:05:02;13.18;;;11.70;;
11084;SDS011;5596;46.826;8.650;2022-07-23T14:07:29;17.85;;;11.75;;
11084;SDS011;5596;46.826;8.650;2022-07-23T14:09:57;13.93;;;12.35;;
11084;SDS011;5596;46.826;8.650;2022-07-23T14:12:24;15.00;;;13.50;;
11084;SDS011;5596;46.826;8.650;2022-07-23T14:14:52;14.98;;;12.27;;
11084;SDS011;5596;46.826;8.650;2022-07-23T14:17:19;13.95;;;12.55;;
11084;SDS011;5596;46.826;8.650;2022-07-23T14:19:47;13.90;;;12.40;;
11084;SDS011;5596;46.826;8.650;2022-07-23T14:22:15;14.68;;;12.52;;
11084;SDS011;5596;46.826;8.650;2022-07-23T14:24:42;11.95;;;10.82;;
11084;SDS011;5596;46.826;8.650;2022-07-23T14:27:10;12.98;;;11.45;;
11084;SDS011;5596;46.826;8.650;2022-07-23T14:29:37;12.38;;;11.10;;
11084;SDS011;5596;46.826;8.650;2022-07-23T14:32:05;17.75;;;12.32;;
11084;SDS011;5596;46.826;8.650;2022-07-23T14:34:32;11.60;;;10.43;;
11084;SDS011;5596;46.826;8.650;2022-07-23T14:37:01;12.23;;;11.05;;
11084;SDS011;5596;46.826;8.650;2022-07-23T14:39:28;12.13;;;10.55;;
11084;SDS011;5596;46.826;8.650;2022-07-23T14:41:55;10.98;;;9.88;;
11084;SDS011;5596;46.826;8.650;2022-07-23T14:44:22;12.43;;;10.48;;
11084;SDS011;5596;46.826;8.650;2022-07-23T14:46:49;10.98;;;9.75;;
11084;SDS011;5596;46.826;8.650;2022-07-23T14:49:16;10.93;;;9.55;;
11084;SDS011;5596;46.826;8.650;2022-07-23T14:51:43;11.98;;;10.10;;
11084;SDS011;5596;46.826;8.650;2022-07-23T14:54:12;10.13;;;9.23;;
11084;SDS011;5596;46.826;8.650;2022-07-23T14:56:39;10.85;;;9.20;;
11084;SDS011;5596;46.826;8.650;2022-07-23T14:59:07;12.57;;;10.25;;
11084;SDS011;5596;46.826;8.650;2022-07-23T15:01:34;10.98;;;9.85;;
11084;SDS011;5596;46.826;8.650;2022-07-23T15:04:01;10.70;;;9.70;;
11084;SDS011;5596;46.826;8.650;2022-07-23T15:06:29;11.20;;;10.07;;
11084;SDS011;5596;46.826;8.650;2022-07-23T15:08:56;10.63;;;9.50;;
11084;SDS011;5596;46.826;8.650;2022-07-23T15:11:24;10.82;;;9.73;;
11084;SDS011;5596;46.826;8.650;2022-07-23T15:13:51;11.15;;;10.15;;
11084;SDS011;5596;46.826;8.650;2022-07-23T15:16:19;10.48;;;9.38;;